パリ/シャルル・ド・ゴール の空港の天気 - METARとTAF

シャルル・ド・ゴール国際空港(パリ) ( LFPG / CDG ) - フランス Paris
飛行場実況気象(Metar)
観測時間12/15 13:30 CET (12/15 12:30 UTC)
風向・風速南南東 6m/s 瞬間風速12m/s
視程10km以上
天気現象
なし
気温1℃
湿度64%
気圧1019hPa
METARLFPG 151230Z 16012G23KT 110V180 CAVOK 01/M05 Q1019 NOSIG
過去の天気等 Google飛行場航空写真 Wunderground天気予報

過去48時間のMETAR

飛行場予報(TAF)
発表時間: 12/15 12:00 CET (12/15 11:00 UTC)
予報対象時間: 15日13時 CET ~ 16日19時 CET
風向・風速南東 5m/s
視程10km以上
全天の8割程度の雲 雲底高度 1370m
15日15時 CET ~ 15日17時 CET に徐々に
全天の8割程度の雲 雲底高度 180m
15日15時 CET ~ 15日18時 CET に 確率 30% で一時的に
天気現象弱い氷雨
15日19時 CET ~ 15日22時 CET に 確率 40% で一時的に
風向・風速南南東 8m/s 瞬間風速 13m/s
視程3000m
天気現象
15日19時 CET ~ 16日19時 CET に一時的に
全天の8割程度の雲 雲底高度 60m
15日23時 CET ~ 16日19時 CET に 確率 40% で一時的に
視程3000m
天気現象もや
TAF LFPG 151100Z 1512/1618 14010KT 9999 BKN045 TX07/1612Z TNM00/1514Z
BECMG 1514/1516 BKN006
PROB30 TEMPO 1514/1517 -FZRA
PROB40 TEMPO 1518/1521 15015G25KT 3000 RA
TEMPO 1518/1618 BKN002
PROB40 TEMPO 1522/1618 3000 BR